createdAt,value
2022-10-13T00:04:11.298Z,99.90
2022-10-13T00:09:13.152Z,99.90
2022-10-13T00:14:14.973Z,99.90
2022-10-13T00:19:16.796Z,99.90
2022-10-13T00:24:18.658Z,99.90
2022-10-13T00:29:20.580Z,99.90
2022-10-13T00:34:22.805Z,99.90
2022-10-13T00:39:25.620Z,99.90
2022-10-13T00:44:59.426Z,99.90
2022-10-13T00:50:01.782Z,99.90
2022-10-13T00:55:04.587Z,99.90
2022-10-13T01:00:07.442Z,99.90
2022-10-13T01:05:09.630Z,99.90
2022-10-13T01:10:11.729Z,99.90
2022-10-13T01:15:26.725Z,99.90
2022-10-13T01:20:34.313Z,99.90
2022-10-13T01:26:27.406Z,99.90
2022-10-13T01:31:48.833Z,99.90
2022-10-13T01:36:55.301Z,99.90
2022-10-13T01:42:11.294Z,99.90
2022-10-13T01:47:16.087Z,99.90
2022-10-13T01:52:19.447Z,99.90
2022-10-13T01:57:31.368Z,99.90
2022-10-13T02:03:22.362Z,99.90
2022-10-13T02:08:31.417Z,99.90
2022-10-13T02:13:34.813Z,99.90
2022-10-13T02:18:37.089Z,99.90
2022-10-13T02:23:39.030Z,99.90
2022-10-13T02:28:41.165Z,99.90
2022-10-13T02:33:43.081Z,99.90
2022-10-13T02:38:44.901Z,99.90
2022-10-13T02:43:49.675Z,99.90
2022-10-13T02:48:51.763Z,99.90
2022-10-13T02:53:53.896Z,99.90
2022-10-13T02:58:55.726Z,99.90
2022-10-13T03:03:57.625Z,99.90
2022-10-13T03:08:59.659Z,99.90
2022-10-13T03:14:02.961Z,99.90
2022-10-13T03:19:05.039Z,99.90
2022-10-13T03:24:07.152Z,99.90
2022-10-13T03:29:14.626Z,99.90
2022-10-13T03:34:17.905Z,99.90
2022-10-13T03:39:19.799Z,99.90
2022-10-13T03:44:21.653Z,99.90
2022-10-13T03:49:23.628Z,99.90
2022-10-13T03:54:25.522Z,99.90
2022-10-13T03:59:34.154Z,99.90
2022-10-13T04:04:39.075Z,99.90
2022-10-13T04:09:40.933Z,99.90
2022-10-13T04:14:42.809Z,99.90
2022-10-13T04:19:44.748Z,99.90
2022-10-13T04:24:46.785Z,99.90
2022-10-13T04:29:48.610Z,99.90
2022-10-13T04:34:50.622Z,99.90
2022-10-13T04:39:52.600Z,99.90
2022-10-13T04:44:54.437Z,99.90
2022-10-13T04:49:56.270Z,99.90
2022-10-13T04:54:58.105Z,99.90
2022-10-13T05:00:00.569Z,99.90
2022-10-13T05:05:02.548Z,99.90
2022-10-13T05:10:05.221Z,99.90
2022-10-13T05:15:07.886Z,99.90
2022-10-13T05:20:10.282Z,99.90
2022-10-13T05:25:12.267Z,99.90
2022-10-13T05:30:14.096Z,99.90
2022-10-13T05:35:16.076Z,99.90
2022-10-13T05:40:18.204Z,99.90
2022-10-13T05:45:21.852Z,99.90
2022-10-13T05:50:25.126Z,99.90
2022-10-13T05:55:28.067Z,99.90
2022-10-13T06:00:30.271Z,99.90
2022-10-13T06:05:32.817Z,99.90
2022-10-13T06:10:34.738Z,99.90
2022-10-13T06:15:36.631Z,99.90
2022-10-13T06:20:38.543Z,99.90
2022-10-13T06:25:52.075Z,99.90
2022-10-13T06:30:59.010Z,99.90
2022-10-13T06:36:04.951Z,99.90
2022-10-13T06:41:08.191Z,99.90
2022-10-13T06:46:10.730Z,99.90
2022-10-13T06:51:12.730Z,99.90
2022-10-13T06:56:14.685Z,99.90
2022-10-13T07:01:16.628Z,99.90
2022-10-13T07:06:18.611Z,99.90
2022-10-13T07:11:20.575Z,99.90
2022-10-13T07:16:22.451Z,99.90
2022-10-13T07:21:24.262Z,99.90
2022-10-13T07:26:26.071Z,99.90
2022-10-13T07:31:28.215Z,99.90
2022-10-13T07:36:30.275Z,99.90
2022-10-13T07:41:33.403Z,99.90
2022-10-13T07:46:35.219Z,99.90
2022-10-13T07:51:37.208Z,99.90
2022-10-13T07:56:39.019Z,99.90
2022-10-13T08:01:41.163Z,99.90
2022-10-13T08:06:43.146Z,99.90
2022-10-13T08:11:44.955Z,99.90
2022-10-13T08:16:49.914Z,99.90
2022-10-13T08:21:59.485Z,99.90
2022-10-13T08:27:01.896Z,99.90
2022-10-13T08:32:03.757Z,99.90
2022-10-13T08:37:05.912Z,99.90
2022-10-13T08:42:22.576Z,99.90
2022-10-13T08:47:29.507Z,99.90
2022-10-13T08:52:50.428Z,99.90
2022-10-13T08:57:52.614Z,99.90
2022-10-13T09:03:17.762Z,99.90
2022-10-13T09:08:21.218Z,99.90
2022-10-13T09:13:25.062Z,99.90
2022-10-13T09:18:31.832Z,99.90
2022-10-13T09:23:35.133Z,99.90
2022-10-13T09:28:39.962Z,99.90
2022-10-13T09:33:42.075Z,99.90
2022-10-13T09:39:04.693Z,99.90
2022-10-13T09:44:15.974Z,99.90
2022-10-13T09:49:39.800Z,99.90
2022-10-13T09:54:53.221Z,99.90
2022-10-13T10:00:10.416Z,99.90
2022-10-13T10:05:27.985Z,99.90
2022-10-13T10:10:33.492Z,99.90
2022-10-13T10:16:04.774Z,99.90
2022-10-13T10:21:06.630Z,99.90
2022-10-13T10:26:24.959Z,99.90
2022-10-13T10:31:35.442Z,99.90
2022-10-13T10:36:57.303Z,99.90
2022-10-13T10:42:34.375Z,99.90
2022-10-13T10:47:47.911Z,99.90
2022-10-13T10:53:06.931Z,99.90
2022-10-13T10:58:27.402Z,99.90
2022-10-13T11:03:50.749Z,99.90
2022-10-13T11:08:55.324Z,99.90
2022-10-13T11:14:06.265Z,99.90
2022-10-13T11:19:08.367Z,99.90
2022-10-13T11:24:36.467Z,98.80
2022-10-13T11:29:47.226Z,97.90
2022-10-13T11:35:10.382Z,98.40
2022-10-13T11:40:16.296Z,97.70
2022-10-13T11:45:24.768Z,99.40
2022-10-13T11:50:51.736Z,98.50
2022-10-13T11:55:55.903Z,97.50
2022-10-13T12:00:59.032Z,97.40
2022-10-13T12:06:04.778Z,96.60
2022-10-13T12:11:10.264Z,96.20
2022-10-13T12:16:12.813Z,97.30
2022-10-13T12:21:16.378Z,99.30
2022-10-13T12:26:19.778Z,98.40
2022-10-13T12:31:45.360Z,98.90
2022-10-13T12:36:55.685Z,98.20
2022-10-13T12:41:58.366Z,98.20
2022-10-13T12:47:03.763Z,97.70
2022-10-13T12:52:11.665Z,98.00
2022-10-13T12:57:35.364Z,97.80
2022-10-13T13:02:37.205Z,98.10
2022-10-13T13:07:39.038Z,98.20
2022-10-13T13:12:41.416Z,98.70
2022-10-13T13:17:57.763Z,97.80
2022-10-13T13:23:00.908Z,97.40
2022-10-13T13:28:04.545Z,96.80
2022-10-13T13:33:06.753Z,97.70
2022-10-13T13:38:09.928Z,97.10
2022-10-13T13:43:11.761Z,97.60
2022-10-13T13:48:13.700Z,98.50
2022-10-13T13:53:15.520Z,98.50
2022-10-13T13:58:17.421Z,98.40
2022-10-13T14:03:19.675Z,98.70
2022-10-13T14:08:21.574Z,98.40
2022-10-13T14:13:25.523Z,98.10
2022-10-13T14:18:31.281Z,98.70
2022-10-13T14:23:33.158Z,99.30
2022-10-13T14:28:35.154Z,99.70
2022-10-13T14:34:03.207Z,99.90
2022-10-13T14:39:09.370Z,99.90
2022-10-13T14:44:45.086Z,99.90
2022-10-13T14:49:49.951Z,99.90
2022-10-13T14:54:55.000Z,99.90
2022-10-13T15:00:00.849Z,99.90
2022-10-13T15:05:07.044Z,99.90
2022-10-13T15:10:08.945Z,99.90
2022-10-13T15:15:11.173Z,99.90
2022-10-13T15:20:13.197Z,99.90
2022-10-13T15:25:15.083Z,99.90
2022-10-13T15:30:17.066Z,99.90
2022-10-13T15:35:18.909Z,99.90
2022-10-13T15:40:20.725Z,99.90
2022-10-13T15:45:22.556Z,99.90
2022-10-13T15:50:25.213Z,99.90
2022-10-13T15:55:28.941Z,99.90
2022-10-13T16:00:30.891Z,99.90
2022-10-13T16:05:35.948Z,99.90
2022-10-13T16:10:41.868Z,99.90
2022-10-13T16:15:43.874Z,99.90
2022-10-13T16:20:45.909Z,99.90
2022-10-13T16:25:47.964Z,99.90
2022-10-13T16:30:49.885Z,99.90
2022-10-13T16:35:51.715Z,99.90
2022-10-13T16:40:55.668Z,99.90
2022-10-13T16:46:00.375Z,99.90
2022-10-13T16:51:11.904Z,99.90
2022-10-13T16:56:14.411Z,99.90
2022-10-13T17:01:16.723Z,99.90
2022-10-13T17:06:20.877Z,99.90
2022-10-13T17:11:25.445Z,99.90
2022-10-13T17:16:27.677Z,99.90
2022-10-13T17:21:29.593Z,99.90
2022-10-13T17:26:31.562Z,99.90
2022-10-13T17:31:33.468Z,99.90
2022-10-13T17:36:35.943Z,99.90
2022-10-13T17:41:37.819Z,99.90
2022-10-13T17:46:40.000Z,99.90
2022-10-13T17:51:43.025Z,99.90
2022-10-13T17:56:45.948Z,99.90
2022-10-13T18:01:47.875Z,99.90
2022-10-13T18:06:50.219Z,99.90
2022-10-13T18:11:53.843Z,99.90
2022-10-13T18:16:56.551Z,99.90
2022-10-13T18:21:58.383Z,99.90
2022-10-13T18:27:00.928Z,99.90
2022-10-13T18:32:03.040Z,99.90
2022-10-13T18:37:05.615Z,99.90
2022-10-13T18:42:08.211Z,99.90
2022-10-13T18:47:10.057Z,99.90
2022-10-13T18:52:14.534Z,99.90
2022-10-13T18:57:16.514Z,99.90
2022-10-13T19:02:18.333Z,99.90
2022-10-13T19:07:20.554Z,99.90
2022-10-13T19:12:22.521Z,99.90
2022-10-13T19:17:24.374Z,99.90
2022-10-13T19:22:26.192Z,99.90
2022-10-13T19:27:28.088Z,99.90
2022-10-13T19:32:29.969Z,99.90
2022-10-13T19:37:32.246Z,99.90
2022-10-13T19:42:34.398Z,99.90
2022-10-13T19:47:36.230Z,99.90
2022-10-13T19:52:38.196Z,99.90
2022-10-13T19:57:40.185Z,99.90
2022-10-13T20:02:42.113Z,99.90
2022-10-13T20:07:44.126Z,99.90
2022-10-13T20:12:45.970Z,99.90
2022-10-13T20:17:47.892Z,99.90
2022-10-13T20:22:49.766Z,99.90
2022-10-13T20:27:51.646Z,99.90
2022-10-13T20:32:56.149Z,99.90
2022-10-13T20:37:58.288Z,99.90
2022-10-13T20:43:00.126Z,99.90
2022-10-13T20:48:01.966Z,99.90
2022-10-13T20:53:04.015Z,99.90
2022-10-13T20:58:05.979Z,99.90
2022-10-13T21:03:07.964Z,99.90
2022-10-13T21:08:10.257Z,99.90
2022-10-13T21:13:13.078Z,99.90
2022-10-13T21:18:18.034Z,99.90
2022-10-13T21:23:20.520Z,99.90
2022-10-13T21:28:22.426Z,99.90
2022-10-13T21:33:24.337Z,99.90
2022-10-13T21:38:29.781Z,99.90
2022-10-13T21:43:31.770Z,99.90
2022-10-13T21:48:33.607Z,99.90
2022-10-13T21:53:35.877Z,99.90
2022-10-13T21:58:38.369Z,99.90
2022-10-13T22:03:41.651Z,99.90
2022-10-13T22:08:44.536Z,99.90
2022-10-13T22:13:46.444Z,99.90
2022-10-13T22:18:48.905Z,99.90
2022-10-13T22:23:50.863Z,99.90
2022-10-13T22:28:52.944Z,99.90
2022-10-13T22:33:55.543Z,99.90
2022-10-13T22:38:59.880Z,99.90
2022-10-13T22:44:02.437Z,99.90
2022-10-13T22:49:05.329Z,99.90
2022-10-13T22:54:07.265Z,99.90
2022-10-13T22:59:09.604Z,99.90
2022-10-13T23:04:11.585Z,99.90
2022-10-13T23:09:14.019Z,99.90
2022-10-13T23:14:15.910Z,99.90
2022-10-13T23:19:17.751Z,99.90
2022-10-13T23:24:19.579Z,99.90
2022-10-13T23:29:21.772Z,99.90
2022-10-13T23:34:23.830Z,99.90
2022-10-13T23:39:25.777Z,99.90
2022-10-13T23:44:27.620Z,99.90
2022-10-13T23:49:29.451Z,99.90
2022-10-13T23:54:31.338Z,99.90
2022-10-13T23:59:33.529Z,99.90
